sensor_id;sensor_type;location;lat;lon;timestamp;pressure;altitude;pressure_sealevel;temperature;humidity
58473;BME280;44775;51.564;5.460;2023-03-21T00:00:28;101427.09;;;8.71;100.00
58473;BME280;44775;51.564;5.460;2023-03-21T00:02:53;101419.66;;;8.65;100.00
58473;BME280;44775;51.564;5.460;2023-03-21T00:05:18;101409.00;;;8.65;100.00
58473;BME280;44775;51.564;5.460;2023-03-21T00:07:45;101422.06;;;8.59;100.00
58473;BME280;44775;51.564;5.460;2023-03-21T00:10:10;101412.13;;;8.61;100.00
58473;BME280;44775;51.564;5.460;2023-03-21T00:12:35;101414.91;;;8.59;100.00
58473;BME280;44775;51.564;5.460;2023-03-21T00:15:04;101395.97;;;8.43;100.00
58473;BME280;44775;51.564;5.460;2023-03-21T00:17:30;101402.69;;;8.47;100.00
58473;BME280;44775;51.564;5.460;2023-03-21T00:19:57;101398.53;;;8.44;100.00
58473;BME280;44775;51.564;5.460;2023-03-21T00:22:23;101399.63;;;8.42;100.00
58473;BME280;44775;51.564;5.460;2023-03-21T00:24:49;101400.91;;;8.38;100.00
58473;BME280;44775;51.564;5.460;2023-03-21T00:27:16;101401.84;;;8.37;100.00
58473;BME280;44775;51.564;5.460;2023-03-21T00:29:41;101378.19;;;8.34;100.00
58473;BME280;44775;51.564;5.460;2023-03-21T00:32:07;101390.50;;;8.35;100.00
58473;BME280;44775;51.564;5.460;2023-03-21T00:34:32;101390.34;;;8.36;100.00
58473;BME280;44775;51.564;5.460;2023-03-21T00:36:57;101376.34;;;8.34;100.00
58473;BME280;44775;51.564;5.460;2023-03-21T00:39:23;101374.38;;;8.36;100.00
58473;BME280;44775;51.564;5.460;2023-03-21T00:41:48;101375.50;;;8.34;100.00
58473;BME280;44775;51.564;5.460;2023-03-21T00:44:14;101371.84;;;8.35;100.00
58473;BME280;44775;51.564;5.460;2023-03-21T00:46:39;101367.53;;;8.34;100.00
58473;BME280;44775;51.564;5.460;2023-03-21T00:49:05;101359.53;;;8.34;100.00
58473;BME280;44775;51.564;5.460;2023-03-21T00:51:30;101360.38;;;8.34;100.00
58473;BME280;44775;51.564;5.460;2023-03-21T00:53:57;101361.88;;;8.37;100.00
58473;BME280;44775;51.564;5.460;2023-03-21T00:56:22;101364.31;;;8.40;100.00
58473;BME280;44775;51.564;5.460;2023-03-21T00:58:48;101359.97;;;8.39;100.00
58473;BME280;44775;51.564;5.460;2023-03-21T01:01:13;101356.19;;;8.41;100.00
58473;BME280;44775;51.564;5.460;2023-03-21T01:03:39;101352.25;;;8.45;100.00
58473;BME280;44775;51.564;5.460;2023-03-21T01:06:12;101352.81;;;8.49;100.00
58473;BME280;44775;51.564;5.460;2023-03-21T01:08:41;101351.69;;;8.51;100.00
58473;BME280;44775;51.564;5.460;2023-03-21T01:11:10;101347.34;;;8.50;100.00
58473;BME280;44775;51.564;5.460;2023-03-21T01:13:36;101340.59;;;8.46;100.00
58473;BME280;44775;51.564;5.460;2023-03-21T01:16:03;101343.81;;;8.50;100.00
58473;BME280;44775;51.564;5.460;2023-03-21T01:18:30;101337.38;;;8.52;100.00
58473;BME280;44775;51.564;5.460;2023-03-21T01:20:57;101337.25;;;8.54;100.00
58473;BME280;44775;51.564;5.460;2023-03-21T01:23:24;101334.72;;;8.52;100.00
58473;BME280;44775;51.564;5.460;2023-03-21T01:25:52;101329.38;;;8.52;100.00
58473;BME280;44775;51.564;5.460;2023-03-21T01:28:18;101307.69;;;8.47;100.00
58473;BME280;44775;51.564;5.460;2023-03-21T01:30:45;101322.78;;;8.57;100.00
58473;BME280;44775;51.564;5.460;2023-03-21T01:33:11;101318.16;;;8.59;100.00
58473;BME280;44775;51.564;5.460;2023-03-21T01:35:36;101314.66;;;8.58;100.00
58473;BME280;44775;51.564;5.460;2023-03-21T01:38:02;101317.31;;;8.58;100.00
58473;BME280;44775;51.564;5.460;2023-03-21T01:40:27;101317.16;;;8.60;100.00
58473;BME280;44775;51.564;5.460;2023-03-21T01:42:53;101315.50;;;8.59;100.00
58473;BME280;44775;51.564;5.460;2023-03-21T01:48:21;101312.00;;;8.58;100.00
58473;BME280;44775;51.564;5.460;2023-03-21T01:50:48;101300.34;;;8.59;100.00
58473;BME280;44775;51.564;5.460;2023-03-21T01:53:14;101304.00;;;8.58;100.00
58473;BME280;44775;51.564;5.460;2023-03-21T01:55:40;101303.16;;;8.58;100.00
58473;BME280;44775;51.564;5.460;2023-03-21T01:58:07;101300.34;;;8.59;100.00
58473;BME280;44775;51.564;5.460;2023-03-21T02:00:35;101297.28;;;8.54;100.00
58473;BME280;44775;51.564;5.460;2023-03-21T02:03:04;101304.84;;;8.59;100.00
58473;BME280;44775;51.564;5.460;2023-03-21T02:05:52;101298.69;;;8.58;100.00
58473;BME280;44775;51.564;5.460;2023-03-21T02:08:19;101291.66;;;8.57;100.00
58473;BME280;44775;51.564;5.460;2023-03-21T02:10:47;101287.47;;;8.55;100.00
58473;BME280;44775;51.564;5.460;2023-03-21T02:13:14;101280.31;;;8.55;100.00
58473;BME280;44775;51.564;5.460;2023-03-21T02:15:43;101284.94;;;8.53;100.00
58473;BME280;44775;51.564;5.460;2023-03-21T02:23:43;101274.44;;;8.51;100.00
58473;BME280;44775;51.564;5.460;2023-03-21T02:26:45;101267.00;;;8.55;100.00
58473;BME280;44775;51.564;5.460;2023-03-21T02:29:21;101260.00;;;8.54;100.00
58473;BME280;44775;51.564;5.460;2023-03-21T02:34:50;101257.47;;;8.52;100.00
58473;BME280;44775;51.564;5.460;2023-03-21T02:37:21;101250.31;;;8.53;100.00
58473;BME280;44775;51.564;5.460;2023-03-21T02:42:20;101256.78;;;8.50;100.00
58473;BME280;44775;51.564;5.460;2023-03-21T02:45:00;101252.00;;;8.54;100.00
58473;BME280;44775;51.564;5.460;2023-03-21T02:47:38;101249.47;;;8.52;100.00
58473;BME280;44775;51.564;5.460;2023-03-21T02:50:13;101257.34;;;8.54;100.00
58473;BME280;44775;51.564;5.460;2023-03-21T02:52:41;101252.41;;;8.49;100.00
58473;BME280;44775;51.564;5.460;2023-03-21T02:55:16;101253.13;;;8.51;100.00
58473;BME280;44775;51.564;5.460;2023-03-21T02:57:44;101250.59;;;8.50;100.00
58473;BME280;44775;51.564;5.460;2023-03-21T03:00:15;101244.44;;;8.49;100.00
58473;BME280;44775;51.564;5.460;2023-03-21T03:02:41;101249.91;;;8.48;100.00
58473;BME280;44775;51.564;5.460;2023-03-21T03:05:34;101234.22;;;8.45;100.00
58473;BME280;44775;51.564;5.460;2023-03-21T03:10:56;101221.47;;;8.39;100.00
58473;BME280;44775;51.564;5.460;2023-03-21T03:19:24;101230.00;;;8.33;100.00
58473;BME280;44775;51.564;5.460;2023-03-21T03:22:12;101216.72;;;8.23;100.00
58473;BME280;44775;51.564;5.460;2023-03-21T03:24:54;101224.31;;;8.27;100.00
58473;BME280;44775;51.564;5.460;2023-03-21T03:27:26;101227.25;;;8.24;100.00
58473;BME280;44775;51.564;5.460;2023-03-21T03:29:54;101213.22;;;8.22;100.00
58473;BME280;44775;51.564;5.460;2023-03-21T03:32:27;101213.22;;;8.22;100.00
58473;BME280;44775;51.564;5.460;2023-03-21T03:34:55;101220.53;;;8.20;100.00
58473;BME280;44775;51.564;5.460;2023-03-21T03:37:23;101211.84;;;8.18;100.00
58473;BME280;44775;51.564;5.460;2023-03-21T03:39:59;101217.44;;;8.15;100.00
58473;BME280;44775;51.564;5.460;2023-03-21T03:42:30;101209.34;;;8.17;100.00
58473;BME280;44775;51.564;5.460;2023-03-21T03:44:59;101209.47;;;8.15;100.00
58473;BME280;44775;51.564;5.460;2023-03-21T03:47:32;101202.47;;;8.14;100.00
58473;BME280;44775;51.564;5.460;2023-03-21T03:50:24;101199.25;;;8.11;100.00
58473;BME280;44775;51.564;5.460;2023-03-21T03:52:56;101201.75;;;8.12;100.00
58473;BME280;44775;51.564;5.460;2023-03-21T03:55:24;101194.06;;;8.09;100.00
58473;BME280;44775;51.564;5.460;2023-03-21T03:57:51;101197.28;;;8.13;100.00
58473;BME280;44775;51.564;5.460;2023-03-21T04:00:18;101199.94;;;8.13;100.00
58473;BME280;44775;51.564;5.460;2023-03-21T04:02:44;101193.78;;;8.12;100.00
58473;BME280;44775;51.564;5.460;2023-03-21T04:05:10;101197.44;;;8.11;100.00
58473;BME280;44775;51.564;5.460;2023-03-21T04:07:35;101201.94;;;8.11;100.00
58473;BME280;44775;51.564;5.460;2023-03-21T04:10:00;101194.78;;;8.11;100.00
58473;BME280;44775;51.564;5.460;2023-03-21T04:12:26;101200.09;;;8.11;100.00
58473;BME280;44775;51.564;5.460;2023-03-21T04:14:51;101200.78;;;8.13;100.00
58473;BME280;44775;51.564;5.460;2023-03-21T04:17:17;101191.94;;;8.13;100.00
58473;BME280;44775;51.564;5.460;2023-03-21T04:19:43;101180.47;;;8.12;100.00
58473;BME280;44775;51.564;5.460;2023-03-21T04:22:10;101190.13;;;8.13;100.00
58473;BME280;44775;51.564;5.460;2023-03-21T04:24:37;101180.47;;;8.12;100.00
58473;BME280;44775;51.564;5.460;2023-03-21T04:27:04;101183.84;;;8.14;100.00
58473;BME280;44775;51.564;5.460;2023-03-21T04:29:30;101183.41;;;8.19;100.00
58473;BME280;44775;51.564;5.460;2023-03-21T04:31:55;101179.91;;;8.18;100.00
58473;BME280;44775;51.564;5.460;2023-03-21T04:34:21;101178.78;;;8.21;100.00
58473;BME280;44775;51.564;5.460;2023-03-21T04:36:49;101173.59;;;8.19;100.00
58473;BME280;44775;51.564;5.460;2023-03-21T04:39:15;101172.16;;;8.25;100.00
58473;BME280;44775;51.564;5.460;2023-03-21T04:41:43;101173.28;;;8.22;100.00
58473;BME280;44775;51.564;5.460;2023-03-21T04:44:10;101166.00;;;8.24;100.00
58473;BME280;44775;51.564;5.460;2023-03-21T04:46:36;101164.88;;;8.27;100.00
58473;BME280;44775;51.564;5.460;2023-03-21T04:49:02;101169.22;;;8.28;100.00
58473;BME280;44775;51.564;5.460;2023-03-21T04:51:27;101160.25;;;8.29;100.00
58473;BME280;44775;51.564;5.460;2023-03-21T04:53:53;101159.13;;;8.32;100.00
58473;BME280;44775;51.564;5.460;2023-03-21T04:56:23;101153.78;;;8.32;100.00
58473;BME280;44775;51.564;5.460;2023-03-21T04:58:55;101155.91;;;8.38;100.00
58473;BME280;44775;51.564;5.460;2023-03-21T05:01:20;101149.84;;;8.36;100.00
58473;BME280;44775;51.564;5.460;2023-03-21T05:03:45;101150.00;;;8.34;100.00
58473;BME280;44775;51.564;5.460;2023-03-21T05:06:10;101151.84;;;8.34;100.00
58473;BME280;44775;51.564;5.460;2023-03-21T05:08:36;101144.25;;;8.39;100.00
58473;BME280;44775;51.564;5.460;2023-03-21T05:11:02;101150.13;;;8.42;100.00
58473;BME280;44775;51.564;5.460;2023-03-21T05:13:28;101144.25;;;8.39;100.00
58473;BME280;44775;51.564;5.460;2023-03-21T05:15:53;101152.09;;;8.40;100.00
58473;BME280;44775;51.564;5.460;2023-03-21T05:18:19;101143.69;;;8.35;100.00
58473;BME280;44775;51.564;5.460;2023-03-21T05:20:50;101147.06;;;8.37;100.00
58473;BME280;44775;51.564;5.460;2023-03-21T05:23:23;101154.16;;;8.37;100.00
58473;BME280;44775;51.564;5.460;2023-03-21T05:25:49;101144.38;;;8.37;100.00
58473;BME280;44775;51.564;5.460;2023-03-21T05:28:15;101141.59;;;8.39;100.00
58473;BME280;44775;51.564;5.460;2023-03-21T05:30:47;101143.41;;;8.38;100.00
58473;BME280;44775;51.564;5.460;2023-03-21T05:33:12;101155.91;;;8.38;100.00
58473;BME280;44775;51.564;5.460;2023-03-21T05:35:38;101149.84;;;8.36;100.00
58473;BME280;44775;51.564;5.460;2023-03-21T05:38:04;101152.38;;;8.37;100.00
58473;BME280;44775;51.564;5.460;2023-03-21T05:40:29;101148.75;;;8.38;100.00
58473;BME280;44775;51.564;5.460;2023-03-21T05:42:55;101144.97;;;8.41;100.00
58473;BME280;44775;51.564;5.460;2023-03-21T05:45:20;101137.38;;;8.36;100.00
58473;BME280;44775;51.564;5.460;2023-03-21T05:47:45;101136.25;;;8.39;100.00
58473;BME280;44775;51.564;5.460;2023-03-21T05:50:11;101146.63;;;8.42;100.00
58473;BME280;44775;51.564;5.460;2023-03-21T05:52:38;101142.84;;;8.44;100.00
58473;BME280;44775;51.564;5.460;2023-03-21T05:55:03;101141.94;;;8.54;100.00
58473;BME280;44775;51.564;5.460;2023-03-21T05:57:29;101137.34;;;8.46;100.00
58473;BME280;44775;51.564;5.460;2023-03-21T05:59:59;101138.72;;;8.50;100.00
58473;BME280;44775;51.564;5.460;2023-03-21T06:02:24;101136.94;;;8.50;100.00
58473;BME280;44775;51.564;5.460;2023-03-21T06:04:49;101135.19;;;8.59;100.00
58473;BME280;44775;51.564;5.460;2023-03-21T06:07:15;101128.78;;;8.52;100.00
58473;BME280;44775;51.564;5.460;2023-03-21T06:09:40;101136.19;;;8.58;100.00
58473;BME280;44775;51.564;5.460;2023-03-21T06:12:05;101142.47;;;8.57;100.00
58473;BME280;44775;51.564;5.460;2023-03-21T06:14:31;101129.16;;;8.57;100.00
58473;BME280;44775;51.564;5.460;2023-03-21T06:16:56;101134.19;;;8.60;100.00
58473;BME280;44775;51.564;5.460;2023-03-21T06:19:22;101139.38;;;8.62;100.00
58473;BME280;44775;51.564;5.460;2023-03-21T06:21:48;101138.94;;;8.66;100.00
58473;BME280;44775;51.564;5.460;2023-03-21T06:24:13;101138.63;;;8.69;100.00
58473;BME280;44775;51.564;5.460;2023-03-21T06:26:39;101144.06;;;8.78;100.00
58473;BME280;44775;51.564;5.460;2023-03-21T06:29:06;101151.91;;;8.79;100.00
58473;BME280;44775;51.564;5.460;2023-03-21T06:31:32;101138.75;;;8.78;100.00
58473;BME280;44775;51.564;5.460;2023-03-21T06:33:57;101150.19;;;8.88;100.00
58473;BME280;44775;51.564;5.460;2023-03-21T06:36:22;101141.19;;;8.89;100.00
58473;BME280;44775;51.564;5.460;2023-03-21T06:38:47;101150.78;;;8.99;100.00
58473;BME280;44775;51.564;5.460;2023-03-21T06:41:14;101157.94;;;8.99;100.00
58473;BME280;44775;51.564;5.460;2023-03-21T06:43:40;101150.94;;;8.98;100.00
58473;BME280;44775;51.564;5.460;2023-03-21T06:46:05;101154.59;;;8.97;100.00
58473;BME280;44775;51.564;5.460;2023-03-21T06:48:31;101156.72;;;8.93;100.00
58473;BME280;44775;51.564;5.460;2023-03-21T06:50:56;101157.84;;;8.91;100.00
58473;BME280;44775;51.564;5.460;2023-03-21T06:53:23;101152.75;;;8.97;100.00
58473;BME280;44775;51.564;5.460;2023-03-21T06:55:52;101158.53;;;8.93;100.00
58473;BME280;44775;51.564;5.460;2023-03-21T06:58:17;101149.00;;;8.90;100.00
58473;BME280;44775;51.564;5.460;2023-03-21T07:00:43;101149.00;;;8.90;100.00
58473;BME280;44775;51.564;5.460;2023-03-21T07:03:09;101152.84;;;8.88;100.00
58473;BME280;44775;51.564;5.460;2023-03-21T07:05:35;101152.84;;;8.88;100.00
58473;BME280;44775;51.564;5.460;2023-03-21T07:08:01;101157.06;;;8.81;100.00
58473;BME280;44775;51.564;5.460;2023-03-21T07:10:26;101157.75;;;8.83;100.00
58473;BME280;44775;51.564;5.460;2023-03-21T07:12:52;101157.94;;;8.81;100.00
58473;BME280;44775;51.564;5.460;2023-03-21T07:15:17;101165.75;;;8.83;100.00
58473;BME280;44775;51.564;5.460;2023-03-21T07:17:43;101161.72;;;8.79;100.00
58473;BME280;44775;51.564;5.460;2023-03-21T07:20:08;101167.72;;;8.81;100.00
58473;BME280;44775;51.564;5.460;2023-03-21T07:22:36;101165.38;;;8.78;100.00
58473;BME280;44775;51.564;5.460;2023-03-21T07:25:02;101171.78;;;8.85;100.00
58473;BME280;44775;51.564;5.460;2023-03-21T07:27:28;101171.03;;;8.92;100.00
58473;BME280;44775;51.564;5.460;2023-03-21T07:29:53;101176.66;;;8.89;100.00
58473;BME280;44775;51.564;5.460;2023-03-21T07:32:18;101171.88;;;8.93;100.00
58473;BME280;44775;51.564;5.460;2023-03-21T07:34:44;101174.53;;;8.93;100.00
58473;BME280;44775;51.564;5.460;2023-03-21T07:37:09;101173.66;;;9.02;100.00
58473;BME280;44775;51.564;5.460;2023-03-21T07:39:34;101179.41;;;8.97;100.00
58473;BME280;44775;51.564;5.460;2023-03-21T07:42:00;101177.91;;;8.95;100.00
58473;BME280;44775;51.564;5.460;2023-03-21T07:44:26;101164.72;;;8.93;100.00
58473;BME280;44775;51.564;5.460;2023-03-21T07:46:51;101165.16;;;8.89;100.00
58473;BME280;44775;51.564;5.460;2023-03-21T07:49:16;101166.66;;;9.01;100.00
58473;BME280;44775;51.564;5.460;2023-03-21T07:51:42;101167.78;;;8.98;100.00
58473;BME280;44775;51.564;5.460;2023-03-21T07:54:07;101161.75;;;8.96;100.00
58473;BME280;44775;51.564;5.460;2023-03-21T07:56:32;101162.56;;;8.97;100.00
58473;BME280;44775;51.564;5.460;2023-03-21T07:58:58;101162.81;;;9.04;100.00
58473;BME280;44775;51.564;5.460;2023-03-21T08:01:24;101157.94;;;8.99;100.00
58473;BME280;44775;51.564;5.460;2023-03-21T08:03:50;101148.34;;;9.06;100.00
58473;BME280;44775;51.564;5.460;2023-03-21T08:06:18;101143.03;;;9.06;100.00
58473;BME280;44775;51.564;5.460;2023-03-21T08:08:43;101140.66;;;9.03;100.00
58473;BME280;44775;51.564;5.460;2023-03-21T08:11:09;101144.03;;;9.05;100.00
58473;BME280;44775;51.564;5.460;2023-03-21T08:13:35;101128.25;;;9.12;100.00
58473;BME280;44775;51.564;5.460;2023-03-21T08:16:01;101134.94;;;9.16;100.00
58473;BME280;44775;51.564;5.460;2023-03-21T08:18:26;101127.50;;;9.19;100.00
58473;BME280;44775;51.564;5.460;2023-03-21T08:20:52;101118.56;;;9.29;100.00
58473;BME280;44775;51.564;5.460;2023-03-21T08:23:18;101120.94;;;9.32;100.00
58473;BME280;44775;51.564;5.460;2023-03-21T08:25:44;101112.06;;;9.31;100.00
58473;BME280;44775;51.564;5.460;2023-03-21T08:28:10;101106.66;;;9.41;100.00
58473;BME280;44775;51.564;5.460;2023-03-21T08:30:36;101115.66;;;9.40;100.00
58473;BME280;44775;51.564;5.460;2023-03-21T08:33:03;101107.97;;;9.37;100.00
58473;BME280;44775;51.564;5.460;2023-03-21T08:35:29;101115.81;;;9.38;100.00
58473;BME280;44775;51.564;5.460;2023-03-21T08:37:55;101105.81;;;9.40;100.00
58473;BME280;44775;51.564;5.460;2023-03-21T08:40:21;101115.31;;;9.35;100.00
58473;BME280;44775;51.564;5.460;2023-03-21T08:42:46;101113.00;;;9.40;100.00
58473;BME280;44775;51.564;5.460;2023-03-21T08:45:13;101114.44;;;9.34;100.00
58473;BME280;44775;51.564;5.460;2023-03-21T08:47:39;101111.63;;;9.36;100.00
58473;BME280;44775;51.564;5.460;2023-03-21T08:50:05;101115.44;;;9.33;100.00
58473;BME280;44775;51.564;5.460;2023-03-21T08:52:32;101109.41;;;9.31;100.00
58473;BME280;44775;51.564;5.460;2023-03-21T08:54:57;101102.94;;;9.34;100.00
58473;BME280;44775;51.564;5.460;2023-03-21T08:57:23;101107.13;;;9.36;100.00
58473;BME280;44775;51.564;5.460;2023-03-21T08:59:48;101095.47;;;9.37;100.00
58473;BME280;44775;51.564;5.460;2023-03-21T09:02:15;101098.66;;;9.41;100.00
58473;BME280;44775;51.564;5.460;2023-03-21T09:04:41;101099.03;;;9.46;100.00
58473;BME280;44775;51.564;5.460;2023-03-21T09:07:07;101093.75;;;9.54;100.00
58473;BME280;44775;51.564;5.460;2023-03-21T09:09:35;101094.66;;;9.63;100.00
58473;BME280;44775;51.564;5.460;2023-03-21T09:12:01;101099.69;;;9.66;100.00
58473;BME280;44775;51.564;5.460;2023-03-21T09:14:27;101084.50;;;9.66;100.00
58473;BME280;44775;51.564;5.460;2023-03-21T09:16:52;101097.91;;;9.75;100.00
58473;BME280;44775;51.564;5.460;2023-03-21T09:19:17;101092.72;;;9.73;100.00
58473;BME280;44775;51.564;5.460;2023-03-21T09:21:43;101096.25;;;9.82;100.00
58473;BME280;44775;51.564;5.460;2023-03-21T09:24:08;101091.34;;;9.95;100.00
58473;BME280;44775;51.564;5.460;2023-03-21T09:26:37;101090.25;;;10.06;100.00
58473;BME280;44775;51.564;5.460;2023-03-21T09:29:02;101085.13;;;10.12;100.00
58473;BME280;44775;51.564;5.460;2023-03-21T09:31:30;101087.44;;;10.15;100.00
58473;BME280;44775;51.564;5.460;2023-03-21T09:33:56;101080.75;;;10.11;100.00
58473;BME280;44775;51.564;5.460;2023-03-21T09:36:22;101079.47;;;10.24;100.00
58473;BME280;44775;51.564;5.460;2023-03-21T09:38:48;101079.47;;;10.24;100.00
58473;BME280;44775;51.564;5.460;2023-03-21T09:46:49;101072.63;;;10.63;100.00
58473;BME280;44775;51.564;5.460;2023-03-21T09:49:29;101072.00;;;10.78;100.00
58473;BME280;44775;51.564;5.460;2023-03-21T09:51:58;101078.94;;;10.54;100.00
58473;BME280;44775;51.564;5.460;2023-03-21T09:54:30;101074.63;;;10.53;100.00
58473;BME280;44775;51.564;5.460;2023-03-21T09:57:03;101069.91;;;10.55;100.00
58473;BME280;44775;51.564;5.460;2023-03-21T09:59:33;101063.25;;;10.59;100.00
58473;BME280;44775;51.564;5.460;2023-03-21T10:02:03;101062.41;;;10.59;100.00
58473;BME280;44775;51.564;5.460;2023-03-21T10:04:39;101065.47;;;10.80;100.00
58473;BME280;44775;51.564;5.460;2023-03-21T10:07:04;101060.97;;;10.81;100.00
58473;BME280;44775;51.564;5.460;2023-03-21T10:09:32;101041.44;;;10.80;100.00
58473;BME280;44775;51.564;5.460;2023-03-21T10:12:03;101048.59;;;10.96;100.00
58473;BME280;44775;51.564;5.460;2023-03-21T10:14:37;101047.94;;;11.02;100.00
58473;BME280;44775;51.564;5.460;2023-03-21T10:17:33;101053.81;;;11.14;100.00
58473;BME280;44775;51.564;5.460;2023-03-21T10:22:35;101052.47;;;11.18;100.00
58473;BME280;44775;51.564;5.460;2023-03-21T10:25:01;101035.25;;;11.21;100.00
58473;BME280;44775;51.564;5.460;2023-03-21T10:27:26;101043.59;;;11.26;100.00
58473;BME280;44775;51.564;5.460;2023-03-21T10:29:51;101049.94;;;11.33;100.00
58473;BME280;44775;51.564;5.460;2023-03-21T10:32:17;101045.22;;;11.59;100.00
58473;BME280;44775;51.564;5.460;2023-03-21T10:34:54;101040.19;;;11.73;100.00
58473;BME280;44775;51.564;5.460;2023-03-21T10:37:21;101038.84;;;11.85;100.00
58473;BME280;44775;51.564;5.460;2023-03-21T10:39:50;101036.97;;;11.94;100.00
58473;BME280;44775;51.564;5.460;2023-03-21T10:42:21;101043.56;;;12.14;100.00
58473;BME280;44775;51.564;5.460;2023-03-21T10:44:50;101036.69;;;12.20;100.00
58473;BME280;44775;51.564;5.460;2023-03-21T10:47:24;101042.66;;;12.30;100.00
58473;BME280;44775;51.564;5.460;2023-03-21T10:49:50;101042.34;;;12.25;100.00
58473;BME280;44775;51.564;5.460;2023-03-21T10:52:21;101044.81;;;12.35;100.00
58473;BME280;44775;51.564;5.460;2023-03-21T10:54:47;101042.59;;;12.46;100.00
58473;BME280;44775;51.564;5.460;2023-03-21T10:57:21;101052.28;;;12.47;100.00
58473;BME280;44775;51.564;5.460;2023-03-21T10:59:58;101049.75;;;12.54;100.00
58473;BME280;44775;51.564;5.460;2023-03-21T11:02:34;101048.47;;;12.73;100.00
58473;BME280;44775;51.564;5.460;2023-03-21T11:05:33;101043.31;;;12.63;100.00
58473;BME280;44775;51.564;5.460;2023-03-21T11:07:59;101044.28;;;12.93;100.00
58473;BME280;44775;51.564;5.460;2023-03-21T11:10:35;101035.09;;;12.88;100.00
58473;BME280;44775;51.564;5.460;2023-03-21T11:13:07;101037.13;;;13.09;100.00
58473;BME280;44775;51.564;5.460;2023-03-21T11:15:50;101040.22;;;12.97;100.00
58473;BME280;44775;51.564;5.460;2023-03-21T11:18:24;101033.09;;;12.90;100.00
58473;BME280;44775;51.564;5.460;2023-03-21T11:20:56;101037.25;;;12.69;100.00
58473;BME280;44775;51.564;5.460;2023-03-21T11:23:27;101024.97;;;12.75;100.00
58473;BME280;44775;51.564;5.460;2023-03-21T11:25:55;101036.53;;;12.75;98.96
58473;BME280;44775;51.564;5.460;2023-03-21T11:28:24;101039.44;;;12.89;99.53
58473;BME280;44775;51.564;5.460;2023-03-21T11:30:53;101040.22;;;12.74;98.07
58473;BME280;44775;51.564;5.460;2023-03-21T11:33:20;101047.97;;;12.92;95.89
58473;BME280;44775;51.564;5.460;2023-03-21T11:35:57;101035.44;;;12.62;97.94
58473;BME280;44775;51.564;5.460;2023-03-21T11:38:26;101033.78;;;12.61;98.35
58473;BME280;44775;51.564;5.460;2023-03-21T11:40:56;101023.72;;;12.63;100.00
58473;BME280;44775;51.564;5.460;2023-03-21T11:43:29;101021.47;;;12.74;96.36
58473;BME280;44775;51.564;5.460;2023-03-21T11:48:22;101034.03;;;12.97;93.66
58473;BME280;44775;51.564;5.460;2023-03-21T11:50:49;101026.75;;;13.06;95.65
58473;BME280;44775;51.564;5.460;2023-03-21T11:53:39;101035.38;;;13.16;95.54
58473;BME280;44775;51.564;5.460;2023-03-21T11:56:21;101029.38;;;13.37;94.17
58473;BME280;44775;51.564;5.460;2023-03-21T11:59:00;101026.81;;;13.20;93.74
58473;BME280;44775;51.564;5.460;2023-03-21T12:07:19;101019.16;;;13.32;90.00
58473;BME280;44775;51.564;5.460;2023-03-21T12:15:04;101004.66;;;13.18;92.04
58473;BME280;44775;51.564;5.460;2023-03-21T12:18:00;100999.84;;;13.37;92.33
58473;BME280;44775;51.564;5.460;2023-03-21T12:20:39;100982.34;;;13.41;88.41
58473;BME280;44775;51.564;5.460;2023-03-21T12:23:41;100988.09;;;13.53;88.71
58473;BME280;44775;51.564;5.460;2023-03-21T12:34:49;100975.47;;;13.83;85.69
58473;BME280;44775;51.564;5.460;2023-03-21T12:46:32;100971.81;;;13.84;85.91
58473;BME280;44775;51.564;5.460;2023-03-21T12:49:03;100980.31;;;13.73;86.98
58473;BME280;44775;51.564;5.460;2023-03-21T12:51:35;100979.03;;;13.68;86.50
58473;BME280;44775;51.564;5.460;2023-03-21T12:54:24;100975.31;;;13.55;87.32
58473;BME280;44775;51.564;5.460;2023-03-21T12:59:46;100957.50;;;13.83;85.86
58473;BME280;44775;51.564;5.460;2023-03-21T13:02:22;100962.75;;;14.21;84.15
58473;BME280;44775;51.564;5.460;2023-03-21T13:05:05;100956.88;;;14.54;82.75
58473;BME280;44775;51.564;5.460;2023-03-21T13:07:38;100959.59;;;14.75;78.36
58473;BME280;44775;51.564;5.460;2023-03-21T13:10:15;100952.03;;;15.14;77.31
58473;BME280;44775;51.564;5.460;2023-03-21T13:13:04;100949.41;;;15.62;72.58
58473;BME280;44775;51.564;5.460;2023-03-21T13:20:58;100941.50;;;15.88;70.98
58473;BME280;44775;51.564;5.460;2023-03-21T13:23:33;100953.81;;;15.63;72.87
58473;BME280;44775;51.564;5.460;2023-03-21T13:26:00;100945.34;;;15.38;72.60
58473;BME280;44775;51.564;5.460;2023-03-21T13:28:28;100936.50;;;15.44;73.30
58473;BME280;44775;51.564;5.460;2023-03-21T13:31:17;100941.75;;;15.93;73.77
58473;BME280;44775;51.564;5.460;2023-03-21T13:33:52;100945.13;;;16.22;69.13
58473;BME280;44775;51.564;5.460;2023-03-21T13:36:27;100938.25;;;16.13;67.07
58473;BME280;44775;51.564;5.460;2023-03-21T13:38:58;100935.34;;;15.59;68.92
58473;BME280;44775;51.564;5.460;2023-03-21T13:41:30;100922.78;;;15.39;71.18
58473;BME280;44775;51.564;5.460;2023-03-21T13:51:51;100911.84;;;15.47;69.06
58473;BME280;44775;51.564;5.460;2023-03-21T13:57:05;100914.16;;;15.50;66.91
58473;BME280;44775;51.564;5.460;2023-03-21T14:02:00;100901.91;;;15.89;65.57
58473;BME280;44775;51.564;5.460;2023-03-21T14:04:30;100903.47;;;16.24;64.21
58473;BME280;44775;51.564;5.460;2023-03-21T14:07:01;100899.13;;;16.63;63.06
58473;BME280;44775;51.564;5.460;2023-03-21T14:09:40;100900.00;;;16.57;63.58
58473;BME280;44775;51.564;5.460;2023-03-21T14:12:21;100895.97;;;16.26;65.15
58473;BME280;44775;51.564;5.460;2023-03-21T14:14:58;100881.56;;;15.86;66.75
58473;BME280;44775;51.564;5.460;2023-03-21T14:17:27;100878.06;;;15.44;66.58
58473;BME280;44775;51.564;5.460;2023-03-21T14:19:54;100872.09;;;15.14;68.94